createdAt,value
2022-12-26T00:00:12.006Z,30.25
2022-12-26T00:05:13.559Z,33.13
2022-12-26T00:10:14.925Z,34.13
2022-12-26T00:15:16.425Z,37.70
2022-12-26T00:20:17.884Z,31.92
2022-12-26T00:25:19.283Z,31.38
2022-12-26T00:30:20.805Z,36.67
2022-12-26T00:35:22.572Z,36.25
2022-12-26T00:40:23.961Z,34.13
2022-12-26T00:45:25.395Z,37.28
2022-12-26T00:50:34.223Z,38.03
2022-12-26T00:55:36.263Z,32.40
2022-12-26T01:00:37.832Z,26.20
2022-12-26T01:05:44.467Z,22.33
2022-12-26T01:10:47.193Z,21.13
2022-12-26T01:15:53.089Z,21.77
2022-12-26T01:21:02.490Z,23.87
2022-12-26T01:26:15.250Z,21.75
2022-12-26T01:31:22.736Z,18.80
2022-12-26T01:36:24.444Z,21.52
2022-12-26T01:41:26.818Z,18.50
2022-12-26T01:46:38.868Z,20.27
2022-12-26T01:51:45.814Z,20.60
2022-12-26T01:56:47.712Z,19.50
2022-12-26T02:01:52.593Z,19.67
2022-12-26T02:06:54.818Z,16.92
2022-12-26T02:12:35.060Z,16.98
2022-12-26T02:17:31.282Z,16.58
2022-12-26T02:22:44.804Z,15.50
2022-12-26T02:28:04.147Z,13.48
2022-12-26T02:33:20.678Z,17.30
2022-12-26T02:38:52.301Z,15.90
2022-12-26T02:43:59.801Z,17.60
2022-12-26T02:49:18.379Z,17.15
2022-12-26T02:54:46.664Z,19.02
2022-12-26T03:00:11.706Z,19.65
2022-12-26T03:05:57.050Z,16.58
2022-12-26T03:11:17.684Z,19.73
2022-12-26T03:16:50.298Z,18.85
2022-12-26T03:21:52.438Z,22.17
2022-12-26T03:26:54.806Z,23.23
2022-12-26T03:31:56.898Z,22.90
2022-12-26T03:37:22.539Z,20.00
2022-12-26T03:43:07.024Z,18.17
2022-12-26T03:48:43.172Z,18.35
2022-12-26T03:54:16.201Z,20.50
2022-12-26T03:59:46.784Z,18.58
2022-12-26T04:05:09.595Z,21.88
2022-12-26T04:10:36.211Z,22.50
2022-12-26T04:16:14.784Z,21.90
2022-12-26T04:21:46.842Z,20.98
2022-12-26T04:27:13.772Z,20.52
2022-12-26T04:32:52.718Z,20.83
2022-12-26T04:38:15.831Z,21.90
2022-12-26T04:43:48.490Z,25.20
2022-12-26T04:49:13.010Z,24.08
2022-12-26T04:54:14.587Z,25.30
2022-12-26T04:59:17.632Z,21.70
2022-12-26T05:04:37.789Z,23.20
2022-12-26T05:09:39.738Z,19.77
2022-12-26T05:14:41.195Z,18.90
2022-12-26T05:20:01.370Z,15.02
2022-12-26T05:25:21.634Z,16.85
2022-12-26T05:30:23.253Z,13.57
2022-12-26T05:35:24.794Z,12.27
2022-12-26T05:40:26.235Z,11.75
2022-12-26T05:45:27.661Z,10.82
2022-12-26T05:50:29.602Z,9.98
2022-12-26T05:55:31.051Z,7.50
2022-12-26T06:00:32.910Z,7.50
2022-12-26T06:05:34.376Z,7.18
2022-12-26T06:10:35.802Z,7.43
2022-12-26T06:15:38.925Z,8.07
2022-12-26T06:20:40.429Z,8.15
2022-12-26T06:25:41.832Z,7.35
2022-12-26T06:30:43.232Z,5.55
2022-12-26T06:35:44.969Z,5.78
2022-12-26T06:40:46.364Z,5.63
2022-12-26T06:45:58.501Z,6.45
2022-12-26T06:51:04.933Z,6.95
2022-12-26T06:56:15.871Z,6.40
2022-12-26T07:01:18.966Z,6.68
2022-12-26T07:06:32.821Z,6.57
2022-12-26T07:11:36.656Z,7.20
2022-12-26T07:16:40.362Z,8.07
2022-12-26T07:21:42.913Z,5.65
2022-12-26T07:26:45.573Z,8.32
2022-12-26T07:31:47.203Z,7.72
2022-12-26T07:36:48.682Z,6.60
2022-12-26T07:41:59.228Z,8.15
2022-12-26T07:47:01.239Z,7.00
2022-12-26T07:52:03.227Z,7.68
2022-12-26T07:57:37.952Z,6.88
2022-12-26T08:02:31.883Z,7.03
2022-12-26T08:07:33.477Z,6.30
2022-12-26T08:12:35.991Z,7.35
2022-12-26T08:17:37.636Z,5.28
2022-12-26T08:22:39.115Z,5.47
2022-12-26T08:27:41.040Z,4.43
2022-12-26T08:32:46.152Z,4.15
2022-12-26T08:37:47.986Z,4.72
2022-12-26T08:43:11.847Z,4.78
2022-12-26T08:48:10.873Z,3.55
2022-12-26T08:53:12.288Z,3.55
2022-12-26T08:58:13.797Z,2.67
2022-12-26T09:03:15.872Z,2.47
2022-12-26T09:08:20.048Z,2.83
2022-12-26T09:13:22.875Z,2.58
2022-12-26T09:18:24.635Z,2.45
2022-12-26T09:23:26.229Z,3.03
2022-12-26T09:28:28.934Z,2.90
2022-12-26T09:33:33.456Z,2.00
2022-12-26T09:38:36.375Z,2.25
2022-12-26T09:44:11.198Z,2.47
2022-12-26T09:49:28.014Z,2.67
2022-12-26T09:54:50.591Z,2.03
2022-12-26T09:59:57.219Z,2.22
2022-12-26T10:04:59.655Z,2.22
2022-12-26T10:10:14.487Z,1.17
2022-12-26T10:15:31.305Z,1.50
2022-12-26T10:20:56.553Z,1.60
2022-12-26T10:26:10.059Z,1.77
2022-12-26T10:31:19.678Z,2.25
2022-12-26T10:36:37.110Z,2.70
2022-12-26T10:42:08.957Z,1.33
2022-12-26T10:47:22.275Z,1.40
2022-12-26T10:52:33.139Z,0.90
2022-12-26T10:57:36.814Z,1.90
2022-12-26T11:02:38.368Z,2.15
2022-12-26T11:07:51.501Z,2.00
2022-12-26T11:12:58.855Z,2.13
2022-12-26T11:18:36.983Z,1.08
2022-12-26T11:23:38.549Z,2.55
2022-12-26T11:28:40.058Z,1.80
2022-12-26T11:33:43.644Z,1.83
2022-12-26T11:38:52.563Z,0.57
2022-12-26T11:43:56.275Z,0.75
2022-12-26T11:48:58.143Z,1.13
2022-12-26T11:54:30.262Z,1.17
2022-12-26T11:59:33.072Z,1.38
2022-12-26T12:04:35.616Z,1.38
2022-12-26T12:09:51.340Z,1.77
2022-12-26T12:15:05.043Z,1.67
2022-12-26T12:20:30.560Z,0.73
2022-12-26T12:25:49.966Z,1.95
2022-12-26T12:30:57.029Z,1.40
2022-12-26T12:36:10.629Z,0.90
2022-12-26T12:41:30.350Z,1.35
2022-12-26T12:46:53.473Z,2.20
2022-12-26T12:52:21.708Z,1.40
2022-12-26T12:57:55.752Z,1.27
2022-12-26T13:03:10.434Z,2.58
2022-12-26T13:08:36.303Z,2.10
2022-12-26T13:13:55.753Z,1.50
2022-12-26T13:19:10.253Z,1.40
2022-12-26T13:24:24.864Z,3.20
2022-12-26T13:29:47.166Z,1.55
2022-12-26T13:34:50.579Z,2.17
2022-12-26T13:39:52.748Z,1.55
2022-12-26T13:44:55.673Z,3.63
2022-12-26T13:49:57.360Z,1.33
2022-12-26T13:55:04.551Z,2.00
2022-12-26T14:00:08.445Z,0.93
2022-12-26T14:05:40.372Z,1.77
2022-12-26T14:11:07.136Z,1.20
2022-12-26T14:16:22.962Z,1.20
2022-12-26T14:21:46.377Z,2.03
2022-12-26T14:26:53.926Z,8.57
2022-12-26T14:32:23.765Z,2.00
2022-12-26T14:37:57.218Z,2.50
2022-12-26T14:43:26.323Z,3.97
2022-12-26T14:48:33.747Z,2.35
2022-12-26T14:53:36.092Z,3.00
2022-12-26T14:58:49.373Z,3.28
2022-12-26T15:04:00.127Z,2.42
2022-12-26T15:09:26.549Z,2.80
2022-12-26T15:14:51.573Z,2.90
2022-12-26T15:20:05.220Z,1.50
2022-12-26T15:25:31.645Z,2.97
2022-12-26T15:30:55.526Z,2.38
2022-12-26T15:36:05.022Z,3.42
2022-12-26T15:41:23.770Z,2.03
2022-12-26T15:46:35.619Z,2.53
2022-12-26T15:52:01.713Z,1.95
2022-12-26T15:57:09.051Z,2.08
2022-12-26T16:02:31.770Z,3.50
2022-12-26T16:07:49.506Z,2.97
2022-12-26T16:13:01.239Z,4.93
2022-12-26T16:18:22.144Z,5.03
2022-12-26T16:23:26.420Z,12.05
2022-12-26T16:28:36.452Z,6.88
2022-12-26T16:33:41.450Z,4.30
2022-12-26T16:38:45.222Z,4.10
2022-12-26T16:43:46.807Z,5.22
2022-12-26T16:48:59.722Z,3.05
2022-12-26T16:54:19.585Z,2.65
2022-12-26T16:59:24.499Z,4.88
2022-12-26T17:04:30.297Z,3.00
2022-12-26T17:09:46.447Z,3.42
2022-12-26T17:14:49.755Z,4.30
2022-12-26T17:19:54.430Z,3.47
2022-12-26T17:25:20.275Z,4.25
2022-12-26T17:30:33.447Z,5.07
2022-12-26T17:36:06.097Z,5.00
2022-12-26T17:41:05.319Z,4.75
2022-12-26T17:46:10.861Z,3.75
2022-12-26T17:51:16.532Z,3.30
2022-12-26T17:56:22.281Z,4.38
2022-12-26T18:01:26.783Z,3.80
2022-12-26T18:06:31.631Z,5.45
2022-12-26T18:11:33.142Z,3.97
2022-12-26T18:16:34.719Z,3.67
2022-12-26T18:21:36.194Z,3.20
2022-12-26T18:26:40.543Z,3.17
2022-12-26T18:31:42.102Z,6.07
2022-12-26T18:36:43.607Z,4.05
2022-12-26T18:41:46.106Z,6.00
2022-12-26T18:46:50.231Z,3.45
2022-12-26T18:51:51.814Z,3.15
2022-12-26T18:56:53.346Z,3.20
2022-12-26T19:01:54.951Z,4.53
2022-12-26T19:06:59.053Z,3.75
2022-12-26T19:12:00.906Z,4.82
2022-12-26T19:17:02.389Z,4.82
2022-12-26T19:22:05.102Z,2.30
2022-12-26T19:27:06.987Z,4.72
2022-12-26T19:32:08.837Z,4.70
2022-12-26T19:37:10.273Z,3.95
2022-12-26T19:42:11.668Z,3.58
2022-12-26T19:47:14.298Z,3.67
2022-12-26T19:52:15.895Z,3.28
2022-12-26T19:57:17.398Z,5.82
2022-12-26T20:02:19.041Z,2.75
2022-12-26T20:07:20.776Z,4.10
2022-12-26T20:12:22.340Z,3.90
2022-12-26T20:17:23.899Z,3.25
2022-12-26T20:22:26.714Z,2.47
2022-12-26T20:27:28.893Z,3.28
2022-12-26T20:32:30.467Z,3.45
2022-12-26T20:37:32.289Z,3.28
2022-12-26T20:42:35.886Z,3.15
2022-12-26T20:47:37.611Z,3.03
2022-12-26T20:52:41.372Z,3.65
2022-12-26T20:57:42.955Z,3.10
2022-12-26T21:02:44.947Z,3.30
2022-12-26T21:07:49.834Z,3.22
2022-12-26T21:12:51.237Z,3.90
2022-12-26T21:17:52.946Z,4.50
2022-12-26T21:23:05.742Z,4.05
2022-12-26T21:28:07.378Z,4.28
2022-12-26T21:33:35.831Z,3.35
2022-12-26T21:38:33.385Z,3.72
2022-12-26T21:49:37.712Z,4.75
2022-12-26T21:54:57.715Z,3.83
2022-12-26T22:00:04.265Z,5.03
2022-12-26T22:05:05.923Z,3.72
2022-12-26T22:10:08.198Z,4.82
2022-12-26T22:15:30.501Z,4.47
2022-12-26T22:20:33.891Z,4.82
2022-12-26T22:25:35.488Z,3.25
2022-12-26T22:30:37.340Z,4.15
2022-12-26T22:35:38.772Z,5.45
2022-12-26T22:40:40.974Z,4.53
2022-12-26T22:45:42.517Z,4.47
2022-12-26T22:50:45.802Z,4.57
2022-12-26T22:55:49.202Z,5.07
2022-12-26T23:00:50.647Z,3.95
2022-12-26T23:05:52.758Z,5.18
2022-12-26T23:10:57.325Z,4.50
2022-12-26T23:16:13.134Z,5.13
2022-12-26T23:21:44.104Z,4.70
2022-12-26T23:26:49.625Z,3.55
2022-12-26T23:31:51.560Z,4.03
2022-12-26T23:36:53.256Z,3.70
2022-12-26T23:41:56.113Z,3.78
2022-12-26T23:46:57.527Z,4.00
2022-12-26T23:51:59.182Z,4.22
2022-12-26T23:57:00.697Z,5.00
